createdAt,value
2019-05-21T00:01:34.458Z,91.30
2019-05-21T00:04:08.126Z,91.60
2019-05-21T00:06:43.030Z,91.10
2019-05-21T00:09:17.421Z,90.50
2019-05-21T00:11:51.327Z,89.10
2019-05-21T00:14:25.114Z,89.80
2019-05-21T00:16:58.779Z,89.70
2019-05-21T00:19:32.348Z,90.30
2019-05-21T00:22:05.980Z,90.80
2019-05-21T00:24:39.690Z,90.70
2019-05-21T00:27:13.492Z,90.70
2019-05-21T00:30:22.729Z,91.50
2019-05-21T00:33:31.502Z,92.10
2019-05-21T00:36:41.390Z,92.30
2019-05-21T00:39:50.642Z,92.20
2019-05-21T00:42:37.883Z,92.20
2019-05-21T00:45:13.535Z,92.60
2019-05-21T00:47:47.496Z,93.00
2019-05-21T00:50:21.325Z,92.50
2019-05-21T00:52:55.107Z,92.50
2019-05-21T00:55:28.966Z,93.30
2019-05-21T00:58:03.998Z,93.90
2019-05-21T01:00:38.107Z,93.90
2019-05-21T01:03:11.866Z,93.40
2019-05-21T01:05:45.902Z,93.70
2019-05-21T01:08:19.852Z,94.00
2019-05-21T01:10:53.719Z,94.00
2019-05-21T01:13:27.330Z,94.10
2019-05-21T01:16:00.941Z,94.00
2019-05-21T01:18:34.783Z,94.00
2019-05-21T01:21:08.749Z,93.90
2019-05-21T01:23:42.662Z,93.70
2019-05-21T01:26:16.522Z,94.20
2019-05-21T01:28:51.031Z,93.60
2019-05-21T01:31:26.228Z,93.40
2019-05-21T01:34:00.098Z,93.90
2019-05-21T01:36:34.068Z,93.00
2019-05-21T01:39:09.006Z,93.40
2019-05-21T01:41:43.432Z,92.90
2019-05-21T01:44:17.571Z,93.20
2019-05-21T01:46:51.111Z,93.30
2019-05-21T01:49:24.531Z,93.70
2019-05-21T01:51:58.551Z,94.00
2019-05-21T01:54:32.765Z,93.70
2019-05-21T01:57:06.782Z,93.40
2019-05-21T01:59:42.185Z,93.80
2019-05-21T02:02:17.727Z,94.50
2019-05-21T02:04:51.290Z,93.80
2019-05-21T02:07:26.015Z,94.00
2019-05-21T02:10:00.386Z,94.20
2019-05-21T02:12:34.411Z,94.30
2019-05-21T02:15:08.713Z,94.60
2019-05-21T02:17:42.188Z,94.70
2019-05-21T02:20:16.491Z,94.70
2019-05-21T02:22:50.097Z,93.90
2019-05-21T02:25:24.009Z,94.00
2019-05-21T02:27:57.694Z,94.00
2019-05-21T02:30:31.877Z,94.10
2019-05-21T02:33:05.851Z,94.10
2019-05-21T02:35:53.660Z,94.40
2019-05-21T02:38:17.069Z,94.00
2019-05-21T02:40:50.841Z,93.90
2019-05-21T02:43:26.174Z,93.70
2019-05-21T02:46:00.027Z,94.00
2019-05-21T02:48:34.755Z,94.10
2019-05-21T02:51:08.591Z,94.20
2019-05-21T02:53:43.302Z,93.80
2019-05-21T02:56:15.812Z,93.50
2019-05-21T02:58:49.689Z,94.00
2019-05-21T03:01:28.305Z,93.60
2019-05-21T03:04:03.301Z,93.50
2019-05-21T03:06:37.620Z,93.50
2019-05-21T03:09:12.290Z,93.40
2019-05-21T03:11:46.611Z,93.50
2019-05-21T03:14:20.596Z,93.70
2019-05-21T03:16:55.533Z,94.10
2019-05-21T03:19:29.504Z,94.10
2019-05-21T03:22:04.484Z,94.10
2019-05-21T03:24:38.750Z,94.20
2019-05-21T03:27:12.762Z,91.80
2019-05-21T03:29:46.377Z,91.10
2019-05-21T03:32:20.476Z,91.20
2019-05-21T03:34:54.505Z,91.30
2019-05-21T03:37:28.747Z,91.10
2019-05-21T03:40:02.898Z,91.50
2019-05-21T03:42:37.177Z,91.10
2019-05-21T03:45:11.613Z,91.20
2019-05-21T03:47:44.956Z,91.00
2019-05-21T03:50:19.204Z,90.90
2019-05-21T03:52:53.292Z,90.80
2019-05-21T03:55:26.771Z,90.40
2019-05-21T03:58:00.317Z,90.60
2019-05-21T04:00:35.520Z,90.70
2019-05-21T04:03:09.959Z,91.10
2019-05-21T04:05:44.133Z,91.10
2019-05-21T04:08:18.849Z,91.00
2019-05-21T04:10:52.574Z,91.40
2019-05-21T04:13:26.120Z,91.00
2019-05-21T04:16:01.209Z,91.10
2019-05-21T04:18:36.554Z,90.70
2019-05-21T04:21:10.245Z,91.70
2019-05-21T04:23:44.959Z,91.30
2019-05-21T04:26:17.645Z,91.40
2019-05-21T04:28:51.257Z,91.40
2019-05-21T04:31:25.611Z,91.70
2019-05-21T04:34:01.049Z,91.40
2019-05-21T04:36:36.153Z,91.20
2019-05-21T04:39:10.284Z,91.30
2019-05-21T04:41:43.819Z,91.50
2019-05-21T04:44:17.935Z,91.70
2019-05-21T04:46:51.853Z,91.30
2019-05-21T04:49:26.060Z,91.60
2019-05-21T04:51:59.872Z,91.60
2019-05-21T04:54:35.885Z,91.70
2019-05-21T04:57:11.251Z,91.90
2019-05-21T04:59:45.143Z,91.60
2019-05-21T05:02:19.439Z,91.50
2019-05-21T05:04:56.767Z,90.90
2019-05-21T05:07:31.924Z,90.90
2019-05-21T05:10:08.090Z,91.00
2019-05-21T05:12:42.800Z,91.00
2019-05-21T05:15:16.860Z,91.50
2019-05-21T05:17:51.315Z,91.70
2019-05-21T05:20:25.406Z,91.60
2019-05-21T05:23:00.407Z,91.40
2019-05-21T05:25:34.036Z,91.20
2019-05-21T05:28:08.167Z,91.80
2019-05-21T05:30:43.132Z,91.20
2019-05-21T05:33:17.901Z,91.10
2019-05-21T05:35:51.807Z,91.10
2019-05-21T05:38:26.542Z,91.30
2019-05-21T05:41:02.266Z,91.30
2019-05-21T05:43:35.973Z,91.30
2019-05-21T05:46:11.664Z,92.00
2019-05-21T05:48:46.626Z,92.30
2019-05-21T05:51:25.951Z,92.50
2019-05-21T05:54:07.668Z,92.20
2019-05-21T05:56:41.101Z,91.60
2019-05-21T05:59:14.807Z,91.00
2019-05-21T06:01:49.659Z,91.10
2019-05-21T06:04:23.489Z,90.60
2019-05-21T06:07:00.635Z,90.30
2019-05-21T06:09:35.272Z,90.50
2019-05-21T06:12:08.927Z,90.90
2019-05-21T06:14:42.726Z,91.00
2019-05-21T06:17:17.799Z,90.80
2019-05-21T06:19:52.916Z,90.90
2019-05-21T06:22:26.701Z,91.30
2019-05-21T06:25:00.588Z,91.40
2019-05-21T06:27:35.582Z,91.20
2019-05-21T06:30:12.649Z,91.70
2019-05-21T06:32:49.906Z,91.10
2019-05-21T06:35:23.610Z,91.00
2019-05-21T06:37:58.679Z,90.30
2019-05-21T06:40:32.448Z,91.00
2019-05-21T06:43:07.836Z,91.30
2019-05-21T06:45:42.139Z,91.50
2019-05-21T06:48:15.867Z,90.50
2019-05-21T06:50:49.780Z,90.20
2019-05-21T06:53:23.623Z,90.10
2019-05-21T06:55:57.896Z,89.60
2019-05-21T06:58:31.920Z,90.50
2019-05-21T07:01:05.900Z,90.60
2019-05-21T07:03:40.274Z,90.40
2019-05-21T07:06:14.021Z,89.40
2019-05-21T07:08:48.565Z,90.40
2019-05-21T07:11:24.009Z,90.00
2019-05-21T07:13:58.036Z,89.90
2019-05-21T07:16:32.150Z,90.10
2019-05-21T07:19:06.298Z,89.60
2019-05-21T07:21:39.969Z,89.10
2019-05-21T07:24:13.900Z,88.40
2019-05-21T07:26:47.381Z,87.50
2019-05-21T07:29:21.123Z,88.50
2019-05-21T07:31:55.422Z,88.10
2019-05-21T07:34:29.497Z,89.00
2019-05-21T07:37:03.347Z,89.60
2019-05-21T07:39:40.732Z,88.60
2019-05-21T07:42:14.882Z,88.70
2019-05-21T07:44:48.990Z,88.00
2019-05-21T07:47:23.031Z,89.90
2019-05-21T07:49:56.775Z,89.20
2019-05-21T07:52:31.619Z,89.80
2019-05-21T07:55:05.171Z,89.90
2019-05-21T07:57:40.598Z,90.00
2019-05-21T08:00:15.035Z,89.40
2019-05-21T08:02:49.469Z,88.70
2019-05-21T08:05:23.137Z,89.30
2019-05-21T08:07:56.973Z,89.30
2019-05-21T08:10:30.419Z,89.90
2019-05-21T08:13:06.936Z,89.80
2019-05-21T08:15:41.952Z,89.80
2019-05-21T08:18:16.128Z,90.10
2019-05-21T08:20:49.868Z,90.20
2019-05-21T08:23:24.603Z,90.20
2019-05-21T08:26:00.059Z,90.50
2019-05-21T08:28:34.185Z,90.50
2019-05-21T08:31:08.568Z,90.70
2019-05-21T08:33:43.437Z,90.90
2019-05-21T08:36:18.127Z,90.80
2019-05-21T08:38:52.051Z,90.70
2019-05-21T08:41:26.329Z,91.00
2019-05-21T08:44:01.164Z,90.80
2019-05-21T08:46:35.708Z,90.80
2019-05-21T08:49:09.717Z,90.80
2019-05-21T08:51:43.869Z,91.10
2019-05-21T08:54:19.724Z,91.60
2019-05-21T08:56:53.631Z,91.40
2019-05-21T08:59:27.394Z,91.30
2019-05-21T09:02:01.686Z,91.60
2019-05-21T09:04:45.813Z,92.20
2019-05-21T09:07:11.501Z,92.60
2019-05-21T09:09:50.687Z,92.20
2019-05-21T09:12:22.162Z,92.60
2019-05-21T09:14:56.739Z,93.00
2019-05-21T09:17:30.915Z,93.20
2019-05-21T09:20:04.717Z,92.20
2019-05-21T09:22:39.648Z,92.70
2019-05-21T09:25:14.665Z,92.90
2019-05-21T09:27:48.945Z,92.40
2019-05-21T09:30:24.651Z,92.00
2019-05-21T09:33:01.232Z,92.10
2019-05-21T09:35:36.572Z,92.10
2019-05-21T09:38:10.899Z,92.10
2019-05-21T09:40:45.230Z,91.90
2019-05-21T09:43:19.260Z,92.20
2019-05-21T09:45:56.124Z,92.20
2019-05-21T09:48:31.039Z,92.00
2019-05-21T09:51:05.155Z,91.60
2019-05-21T09:53:39.406Z,91.60
2019-05-21T09:56:31.375Z,92.00
2019-05-21T09:59:16.672Z,92.30
2019-05-21T10:02:00.907Z,92.60
2019-05-21T10:04:34.757Z,92.50
2019-05-21T10:07:08.404Z,92.90
2019-05-21T10:09:42.696Z,93.00
2019-05-21T10:12:17.894Z,93.20
2019-05-21T10:14:51.756Z,93.40
2019-05-21T10:17:26.650Z,93.20
2019-05-21T10:20:02.492Z,93.30
2019-05-21T10:22:36.689Z,93.00
2019-05-21T10:25:11.225Z,93.50
2019-05-21T10:27:45.320Z,93.30
2019-05-21T10:30:19.350Z,93.30
2019-05-21T10:32:52.881Z,93.10
2019-05-21T10:35:26.700Z,93.20
2019-05-21T10:38:00.608Z,93.80
2019-05-21T10:40:34.425Z,93.30
2019-05-21T10:43:08.080Z,93.30
2019-05-21T10:45:42.402Z,93.60
2019-05-21T10:48:16.967Z,93.70
2019-05-21T10:50:51.929Z,93.90
2019-05-21T10:53:26.012Z,93.80
2019-05-21T10:55:59.637Z,93.40
2019-05-21T10:58:33.586Z,93.40
2019-05-21T11:01:12.830Z,93.40
2019-05-21T11:03:51.654Z,93.40
2019-05-21T11:06:25.764Z,93.60
2019-05-21T11:08:59.803Z,93.90
2019-05-21T11:11:35.269Z,93.90
2019-05-21T11:14:10.242Z,94.20
2019-05-21T11:16:44.560Z,94.50
2019-05-21T11:19:19.201Z,94.50
2019-05-21T11:21:53.693Z,94.60
2019-05-21T11:24:29.113Z,94.20
2019-05-21T11:27:04.847Z,94.30
2019-05-21T11:29:39.030Z,94.50
2019-05-21T11:32:14.087Z,94.30
2019-05-21T11:34:50.325Z,94.30
2019-05-21T11:37:24.242Z,94.40
2019-05-21T11:39:58.294Z,94.70
2019-05-21T11:42:32.852Z,94.60
2019-05-21T11:45:08.912Z,95.10
2019-05-21T11:47:44.122Z,95.10
2019-05-21T11:50:20.053Z,95.10
2019-05-21T11:52:55.411Z,94.80
2019-05-21T11:55:29.783Z,94.40
2019-05-21T11:58:03.819Z,94.80
2019-05-21T12:00:38.384Z,94.40
2019-05-21T12:03:13.161Z,94.80
2019-05-21T12:05:47.029Z,95.00
2019-05-21T12:08:22.153Z,95.20
2019-05-21T12:10:56.266Z,95.00
2019-05-21T12:13:33.763Z,95.00
2019-05-21T12:16:09.131Z,95.10
2019-05-21T12:18:43.292Z,95.40
2019-05-21T12:21:18.161Z,94.20
2019-05-21T12:23:52.490Z,94.30
2019-05-21T12:26:26.693Z,94.50
2019-05-21T12:29:03.362Z,94.90
2019-05-21T12:31:37.772Z,95.10
2019-05-21T12:34:12.080Z,95.30
2019-05-21T12:36:46.089Z,95.60
2019-05-21T12:39:20.274Z,95.50
2019-05-21T12:41:55.597Z,95.20
2019-05-21T12:44:29.735Z,95.70
2019-05-21T12:47:04.632Z,96.20
2019-05-21T12:49:38.156Z,96.30
2019-05-21T12:52:11.914Z,96.50
2019-05-21T12:54:46.370Z,96.80
2019-05-21T12:57:20.474Z,97.30
2019-05-21T12:59:55.372Z,97.50
2019-05-21T13:02:27.776Z,97.50
2019-05-21T13:05:01.495Z,97.60
2019-05-21T13:07:35.029Z,97.70
2019-05-21T13:10:10.682Z,97.90
2019-05-21T13:12:45.074Z,98.20
2019-05-21T13:15:19.544Z,98.30
2019-05-21T13:17:53.320Z,98.40
2019-05-21T13:20:28.715Z,98.60
2019-05-21T13:23:05.056Z,98.70
2019-05-21T13:25:39.511Z,98.60
2019-05-21T13:28:14.000Z,98.70
2019-05-21T13:30:50.931Z,98.80
2019-05-21T13:33:25.462Z,98.80
2019-05-21T13:36:01.352Z,98.90
2019-05-21T13:38:35.755Z,99.00
2019-05-21T13:41:11.826Z,99.60
2019-05-21T13:43:46.892Z,99.50
2019-05-21T13:46:21.160Z,99.80
2019-05-21T13:49:07.995Z,99.90
2019-05-21T13:51:42.104Z,99.90
2019-05-21T13:54:17.408Z,99.70
2019-05-21T13:56:53.359Z,99.70
2019-05-21T14:02:28.816Z,99.80
2019-05-21T14:05:06.033Z,99.90
2019-05-21T14:07:41.208Z,99.90
2019-05-21T14:10:20.480Z,99.90
2019-05-21T14:12:55.406Z,99.90
2019-05-21T14:15:29.646Z,99.90
2019-05-21T14:18:04.955Z,99.90
2019-05-21T14:20:39.151Z,99.90
2019-05-21T14:23:18.429Z,99.90
2019-05-21T14:25:53.524Z,99.90
2019-05-21T14:28:29.303Z,99.90
2019-05-21T14:31:10.086Z,99.90
2019-05-21T14:33:46.857Z,99.90
2019-05-21T14:36:20.793Z,99.90
2019-05-21T14:38:54.416Z,99.90
2019-05-21T14:41:28.285Z,99.90
2019-05-21T14:44:02.655Z,99.90
2019-05-21T14:46:42.466Z,99.90
2019-05-21T14:49:17.367Z,99.90
2019-05-21T14:51:52.445Z,99.90
2019-05-21T14:54:27.482Z,99.90
2019-05-21T14:57:01.858Z,99.90
2019-05-21T14:59:36.459Z,99.90
2019-05-21T15:02:16.008Z,99.90
2019-05-21T15:04:50.784Z,99.90
2019-05-21T15:07:25.554Z,99.90
2019-05-21T15:09:59.265Z,99.90
2019-05-21T15:12:33.155Z,99.90
2019-05-21T15:15:09.016Z,99.90
2019-05-21T15:17:47.685Z,99.90
2019-05-21T15:20:25.653Z,99.90
2019-05-21T15:23:01.202Z,99.90
2019-05-21T15:25:36.844Z,99.90
2019-05-21T15:28:13.519Z,99.90
2019-05-21T15:30:49.452Z,99.90
2019-05-21T15:33:30.351Z,99.90
2019-05-21T15:36:05.620Z,99.90
2019-05-21T15:38:50.215Z,99.90
2019-05-21T15:41:20.658Z,99.90
2019-05-21T15:43:58.176Z,99.90
2019-05-21T15:46:47.106Z,99.90
2019-05-21T15:49:13.280Z,99.90
2019-05-21T15:51:48.577Z,99.90
2019-05-21T15:54:24.489Z,99.90
2019-05-21T15:56:58.310Z,99.90
2019-05-21T15:59:38.725Z,99.90
2019-05-21T16:02:16.640Z,99.90
2019-05-21T16:04:53.411Z,99.90
2019-05-21T16:07:27.391Z,99.90
2019-05-21T16:10:03.413Z,99.90
2019-05-21T16:12:38.172Z,99.90
2019-05-21T16:15:18.143Z,99.90
2019-05-21T16:17:52.058Z,99.90
2019-05-21T16:20:26.583Z,99.90
2019-05-21T16:23:00.745Z,99.90
2019-05-21T16:25:37.322Z,99.90
2019-05-21T16:28:13.806Z,99.90
2019-05-21T16:30:49.449Z,99.90
2019-05-21T16:33:25.985Z,99.90
2019-05-21T16:36:02.383Z,99.90
2019-05-21T16:38:36.938Z,99.90
2019-05-21T16:41:11.504Z,99.90
2019-05-21T16:43:44.944Z,99.90
2019-05-21T16:46:19.553Z,99.90
2019-05-21T16:49:01.604Z,99.90
2019-05-21T16:51:38.759Z,99.90
2019-05-21T16:54:12.824Z,99.90
2019-05-21T16:56:46.698Z,99.90
2019-05-21T16:59:22.178Z,99.90
2019-05-21T17:01:57.448Z,99.90
2019-05-21T17:04:33.047Z,99.90
2019-05-21T17:07:14.371Z,99.90
2019-05-21T17:09:49.246Z,99.90
2019-05-21T17:12:23.053Z,99.90
2019-05-21T17:15:00.907Z,99.90
2019-05-21T17:17:34.994Z,99.90
2019-05-21T17:20:13.609Z,99.90
2019-05-21T17:22:47.307Z,99.90
2019-05-21T17:25:22.850Z,99.90
2019-05-21T17:27:58.334Z,99.90
2019-05-21T17:30:33.199Z,99.90
2019-05-21T17:33:06.935Z,99.90
2019-05-21T17:35:41.189Z,99.90
2019-05-21T17:38:15.210Z,99.90
2019-05-21T17:40:50.635Z,99.90
2019-05-21T17:43:24.194Z,99.90
2019-05-21T17:45:57.808Z,99.90
2019-05-21T17:48:31.588Z,99.90
2019-05-21T17:51:08.513Z,99.90
2019-05-21T17:53:40.881Z,99.90
2019-05-21T17:56:15.018Z,99.90
2019-05-21T17:58:48.934Z,99.90
2019-05-21T18:01:22.717Z,99.90
2019-05-21T18:03:56.455Z,99.90
2019-05-21T18:06:30.915Z,99.90
2019-05-21T18:09:06.457Z,99.90
2019-05-21T18:11:41.083Z,99.90
2019-05-21T18:14:15.537Z,99.90
2019-05-21T18:16:50.434Z,99.90
2019-05-21T18:19:26.494Z,99.90
2019-05-21T18:22:00.456Z,99.90
2019-05-21T18:24:34.347Z,99.90
2019-05-21T18:27:10.005Z,99.90
2019-05-21T18:29:44.020Z,99.90
2019-05-21T18:32:19.116Z,99.90
2019-05-21T18:34:52.835Z,99.90
2019-05-21T18:37:27.571Z,99.90
2019-05-21T18:40:00.060Z,99.90
2019-05-21T18:42:34.079Z,99.90
2019-05-21T18:45:08.858Z,99.90
2019-05-21T18:47:41.997Z,99.90
2019-05-21T18:50:15.977Z,99.90
2019-05-21T18:52:49.840Z,99.90
2019-05-21T18:55:24.035Z,99.90
2019-05-21T18:57:59.124Z,99.90
2019-05-21T19:00:33.486Z,99.90
2019-05-21T19:03:07.177Z,99.90
2019-05-21T19:05:40.792Z,99.90
2019-05-21T19:08:14.693Z,99.90
2019-05-21T19:10:50.012Z,99.90
2019-05-21T19:13:23.874Z,99.90
2019-05-21T19:15:58.267Z,99.90
2019-05-21T19:18:32.193Z,99.90
2019-05-21T19:21:06.650Z,99.90
2019-05-21T19:23:40.429Z,99.90
2019-05-21T19:26:14.048Z,99.90
2019-05-21T19:28:48.268Z,99.90
2019-05-21T19:31:21.849Z,99.90
2019-05-21T19:33:56.129Z,99.90
2019-05-21T19:36:30.043Z,99.90
2019-05-21T19:39:04.120Z,99.90
2019-05-21T19:41:38.397Z,99.90
2019-05-21T19:44:12.094Z,99.90
2019-05-21T19:46:45.964Z,99.90
2019-05-21T19:49:20.380Z,99.90
2019-05-21T19:51:54.313Z,99.90
2019-05-21T19:54:31.566Z,99.90
2019-05-21T19:57:05.312Z,99.90
2019-05-21T19:59:40.401Z,99.90
2019-05-21T20:02:15.592Z,99.90
2019-05-21T20:04:49.781Z,99.90
2019-05-21T20:07:25.218Z,99.90
2019-05-21T20:09:58.979Z,99.90
2019-05-21T20:12:32.696Z,99.90
2019-05-21T20:15:10.035Z,99.90
2019-05-21T20:17:46.279Z,99.90
2019-05-21T20:20:22.547Z,99.90
2019-05-21T20:22:56.121Z,99.90
2019-05-21T20:25:31.063Z,99.90
2019-05-21T20:28:04.183Z,99.90
2019-05-21T20:30:38.237Z,99.90
2019-05-21T20:33:13.168Z,99.90
2019-05-21T20:35:46.614Z,99.90
2019-05-21T20:38:21.538Z,99.90
2019-05-21T20:40:56.312Z,99.90
2019-05-21T20:43:29.330Z,99.90
2019-05-21T20:46:03.818Z,99.90
2019-05-21T20:48:38.859Z,99.90
2019-05-21T20:51:15.420Z,99.90
2019-05-21T20:53:48.809Z,99.90
2019-05-21T20:56:22.601Z,99.90
2019-05-21T20:58:56.837Z,99.90
2019-05-21T21:01:31.215Z,99.90
2019-05-21T21:04:05.022Z,99.90
2019-05-21T21:06:39.277Z,99.90
2019-05-21T21:09:14.669Z,99.90
2019-05-21T21:11:48.344Z,99.90
2019-05-21T21:14:23.502Z,99.90
2019-05-21T21:16:57.545Z,99.90
2019-05-21T21:19:31.550Z,99.90
2019-05-21T21:22:05.393Z,99.90
2019-05-21T21:24:41.704Z,99.90
2019-05-21T21:27:15.525Z,99.90
2019-05-21T21:29:49.602Z,99.90
2019-05-21T21:32:23.898Z,99.90
2019-05-21T21:34:58.355Z,99.90
2019-05-21T21:37:32.399Z,99.90
2019-05-21T21:40:09.298Z,99.90
2019-05-21T21:42:44.417Z,99.90
2019-05-21T21:45:18.913Z,99.90
2019-05-21T21:47:53.673Z,99.90
2019-05-21T21:50:28.743Z,99.90
2019-05-21T21:53:02.825Z,99.90
2019-05-21T21:55:36.679Z,99.90
2019-05-21T21:58:10.538Z,99.90
2019-05-21T22:01:02.071Z,99.90
2019-05-21T22:03:38.519Z,99.90
2019-05-21T22:06:13.446Z,99.90
2019-05-21T22:08:47.925Z,99.90
2019-05-21T22:11:23.037Z,99.90
2019-05-21T22:13:57.512Z,99.90
2019-05-21T22:16:31.422Z,99.90
2019-05-21T22:19:06.001Z,99.90
2019-05-21T22:21:40.569Z,99.90
2019-05-21T22:24:18.548Z,99.90
2019-05-21T22:26:53.705Z,99.90
2019-05-21T22:29:28.010Z,99.90
2019-05-21T22:32:01.757Z,99.90
2019-05-21T22:34:35.575Z,99.90
2019-05-21T22:37:10.333Z,99.90
2019-05-21T22:39:46.337Z,99.90
2019-05-21T22:42:22.110Z,99.90
2019-05-21T22:45:07.500Z,99.90
2019-05-21T22:47:32.960Z,99.90
2019-05-21T22:50:07.369Z,99.90
2019-05-21T22:52:41.538Z,99.90
2019-05-21T22:55:17.715Z,99.90
2019-05-21T22:57:51.390Z,99.90
2019-05-21T23:00:25.681Z,99.90
2019-05-21T23:03:00.168Z,99.90
2019-05-21T23:05:34.370Z,99.90
2019-05-21T23:08:08.111Z,99.90
2019-05-21T23:10:43.405Z,99.90
2019-05-21T23:13:17.336Z,99.90
2019-05-21T23:15:52.278Z,99.90
2019-05-21T23:18:30.408Z,99.90
2019-05-21T23:21:10.107Z,99.90
2019-05-21T23:23:46.120Z,99.90
2019-05-21T23:26:19.733Z,99.90
2019-05-21T23:28:53.612Z,99.90
2019-05-21T23:31:30.834Z,99.90
2019-05-21T23:34:05.248Z,99.90
2019-05-21T23:36:42.841Z,99.90
2019-05-21T23:39:18.091Z,99.90
2019-05-21T23:41:53.267Z,99.90
2019-05-21T23:44:27.299Z,99.90
2019-05-21T23:47:01.430Z,99.90
2019-05-21T23:49:34.794Z,99.90
2019-05-21T23:52:10.323Z,99.90
2019-05-21T23:54:44.040Z,99.90
2019-05-21T23:57:19.351Z,99.90
2019-05-21T23:59:53.396Z,99.90
